createdAt,value
2022-12-13T00:01:52.100Z,51261.34
2022-12-13T00:04:22.120Z,51249.41
2022-12-13T00:06:50.584Z,51255.38
2022-12-13T00:09:20.041Z,51253.41
2022-12-13T00:11:49.647Z,51259.34
2022-12-13T00:14:17.551Z,51285.19
2022-12-13T00:16:49.262Z,51253.41
2022-12-13T00:19:17.544Z,51259.34
2022-12-13T00:21:45.176Z,51245.44
2022-12-13T00:24:13.140Z,51247.44
2022-12-13T00:26:40.407Z,51257.38
2022-12-13T00:29:08.409Z,51255.38
2022-12-13T00:31:58.687Z,51229.53
2022-12-13T00:34:24.084Z,51285.19
2022-12-13T00:36:51.300Z,51243.47
2022-12-13T00:39:19.330Z,51243.47
2022-12-13T00:41:47.049Z,51259.34
2022-12-13T00:44:14.663Z,51263.34
2022-12-13T00:46:42.131Z,51235.50
2022-12-13T00:49:11.243Z,51243.47
2022-12-13T00:51:39.129Z,51265.31
2022-12-13T00:54:06.855Z,51227.56
2022-12-13T00:56:34.716Z,51265.31
2022-12-13T00:59:02.091Z,51275.25
2022-12-13T01:01:34.375Z,51241.47
2022-12-13T01:04:04.493Z,51261.34
2022-12-13T01:06:45.019Z,51265.31
2022-12-13T01:09:19.023Z,51247.44
2022-12-13T01:11:47.229Z,51275.25
2022-12-13T01:14:15.021Z,51237.50
2022-12-13T01:16:42.228Z,51265.31
2022-12-13T01:19:09.318Z,51263.34
2022-12-13T01:21:36.495Z,51273.28
2022-12-13T01:24:05.725Z,51255.38
2022-12-13T01:26:33.598Z,51245.44
2022-12-13T01:29:01.587Z,51265.31
2022-12-13T01:31:29.183Z,51263.34
2022-12-13T01:33:56.805Z,51239.47
2022-12-13T01:36:27.733Z,51269.31
2022-12-13T01:38:58.482Z,51241.47
2022-12-13T01:41:28.641Z,51243.47
2022-12-13T01:44:07.538Z,51249.41
2022-12-13T01:46:36.300Z,51255.38
2022-12-13T01:49:20.614Z,51231.53
2022-12-13T01:52:01.425Z,51281.22
2022-12-13T01:54:34.436Z,51257.38
2022-12-13T01:57:17.805Z,51255.38
2022-12-13T01:59:49.344Z,51261.34
2022-12-13T02:02:17.118Z,51271.28
2022-12-13T02:05:04.285Z,51237.50
2022-12-13T02:07:34.626Z,51253.41
2022-12-13T02:10:05.350Z,51285.19
2022-12-13T02:12:35.377Z,51237.50
2022-12-13T02:15:16.451Z,51247.44
2022-12-13T02:18:21.984Z,51257.38
2022-12-13T02:21:03.356Z,51245.44
2022-12-13T02:24:19.946Z,51275.25
2022-12-13T02:27:00.479Z,51251.41
2022-12-13T02:29:46.534Z,51235.50
2022-12-13T02:32:16.858Z,51245.44
2022-12-13T02:35:10.220Z,51257.38
2022-12-13T02:38:02.916Z,51237.50
2022-12-13T02:40:39.493Z,51247.44
2022-12-13T02:43:13.342Z,51249.41
2022-12-13T02:45:53.814Z,51255.38
2022-12-13T02:48:34.770Z,51269.31
2022-12-13T02:51:06.949Z,51249.41
2022-12-13T02:53:35.140Z,51249.41
2022-12-13T02:56:02.255Z,51255.38
2022-12-13T02:58:45.968Z,51255.38
2022-12-13T03:01:39.984Z,51251.41
2022-12-13T03:04:24.803Z,51239.47
2022-12-13T03:07:39.598Z,51229.53
2022-12-13T03:10:27.479Z,51253.41
2022-12-13T03:13:22.108Z,51273.28
2022-12-13T03:16:31.093Z,51253.41
2022-12-13T03:19:01.952Z,51251.41
2022-12-13T03:21:30.111Z,51267.31
2022-12-13T03:23:57.275Z,51237.50
2022-12-13T03:26:27.827Z,51245.44
2022-12-13T03:28:55.327Z,51243.47
2022-12-13T03:31:22.610Z,51247.44
2022-12-13T03:33:49.740Z,51261.34
2022-12-13T03:36:18.958Z,51263.34
2022-12-13T03:38:48.270Z,51239.47
2022-12-13T03:41:19.501Z,51285.19
2022-12-13T03:43:47.064Z,51289.19
2022-12-13T03:46:14.193Z,51249.41
2022-12-13T03:48:41.518Z,51287.19
2022-12-13T03:51:08.610Z,51233.50
2022-12-13T03:53:35.737Z,51277.25
2022-12-13T03:56:06.805Z,51255.38
2022-12-13T03:58:37.739Z,51295.16
2022-12-13T04:01:12.068Z,51251.41
2022-12-13T04:03:41.442Z,51257.38
2022-12-13T04:06:09.688Z,51251.41
2022-12-13T04:08:39.030Z,51251.41
2022-12-13T04:11:26.160Z,51243.47
2022-12-13T04:13:54.992Z,51261.34
2022-12-13T04:16:23.722Z,51259.34
2022-12-13T04:18:51.464Z,51273.28
2022-12-13T04:21:18.726Z,51253.41
2022-12-13T04:23:45.981Z,51279.25
2022-12-13T04:26:13.167Z,51277.25
2022-12-13T04:28:40.290Z,51245.44
2022-12-13T04:31:07.501Z,51243.47
2022-12-13T04:33:35.494Z,51265.31
2022-12-13T04:36:02.956Z,51263.34
2022-12-13T04:38:30.084Z,51281.22
2022-12-13T04:41:08.775Z,51265.31
2022-12-13T04:43:35.856Z,51249.41
2022-12-13T04:46:03.095Z,51247.44
2022-12-13T04:48:32.481Z,51249.41
2022-12-13T04:51:01.169Z,51253.41
2022-12-13T04:53:30.285Z,51241.47
2022-12-13T04:55:57.655Z,51267.31
2022-12-13T04:58:24.716Z,51273.28
2022-12-13T05:00:51.816Z,51247.44
2022-12-13T05:03:18.997Z,51265.31
2022-12-13T05:05:46.057Z,51251.41
2022-12-13T05:08:13.394Z,51247.44
2022-12-13T05:10:40.902Z,51253.41
2022-12-13T05:13:08.147Z,51223.56
2022-12-13T05:15:35.368Z,51257.38
2022-12-13T05:18:10.172Z,51253.41
2022-12-13T05:20:39.783Z,51273.28
2022-12-13T05:23:06.991Z,51253.41
2022-12-13T05:25:37.054Z,51245.44
2022-12-13T05:28:26.851Z,51269.31
2022-12-13T05:30:54.484Z,51253.41
2022-12-13T05:33:22.868Z,51247.44
2022-12-13T05:35:53.815Z,51277.25
2022-12-13T05:38:23.435Z,51245.44
2022-12-13T05:40:50.918Z,51229.53
2022-12-13T05:43:21.295Z,51255.38
2022-12-13T05:45:48.911Z,51219.59
2022-12-13T05:48:24.265Z,51255.38
2022-12-13T05:51:09.680Z,51241.47
2022-12-13T05:53:42.201Z,51281.22
2022-12-13T05:56:11.452Z,51251.41
2022-12-13T05:58:40.503Z,51253.41
2022-12-13T06:01:14.044Z,51263.34
2022-12-13T06:03:42.086Z,51257.38
2022-12-13T06:06:11.818Z,51237.50
2022-12-13T06:08:39.609Z,51241.47
2022-12-13T06:11:11.166Z,51249.41
2022-12-13T06:13:52.584Z,51253.41
2022-12-13T06:16:28.588Z,51263.34
2022-12-13T06:19:03.593Z,51261.34
2022-12-13T06:21:41.010Z,51255.38
2022-12-13T06:24:17.660Z,51245.44
2022-12-13T06:26:45.829Z,51239.47
2022-12-13T06:29:24.540Z,51243.47
2022-12-13T06:32:01.722Z,51247.44
2022-12-13T06:34:33.952Z,51255.38
2022-12-13T06:37:04.257Z,51227.56
2022-12-13T06:39:32.956Z,51255.38
2022-12-13T06:42:06.630Z,51237.50
2022-12-13T06:44:35.104Z,51231.53
2022-12-13T06:47:10.598Z,51241.47
2022-12-13T06:49:41.939Z,51261.34
2022-12-13T06:52:14.817Z,51273.28
2022-12-13T06:54:43.641Z,51241.47
2022-12-13T06:57:12.316Z,51245.44
2022-12-13T06:59:39.946Z,51243.47
2022-12-13T07:02:24.407Z,51245.44
2022-12-13T07:04:54.126Z,51255.38
2022-12-13T07:07:21.557Z,51229.53
2022-12-13T07:09:48.735Z,51235.50
2022-12-13T07:12:15.838Z,51275.25
2022-12-13T07:14:43.004Z,51245.44
2022-12-13T07:17:10.906Z,51237.50
2022-12-13T07:19:38.249Z,51241.47
2022-12-13T07:22:05.981Z,51257.38
2022-12-13T07:24:35.083Z,51247.44
2022-12-13T07:27:03.714Z,51237.50
2022-12-13T07:29:31.494Z,51241.47
2022-12-13T07:32:02.229Z,51237.50
2022-12-13T07:34:30.955Z,51241.47
2022-12-13T07:36:58.146Z,51241.47
2022-12-13T07:39:26.325Z,51233.50
2022-12-13T07:41:59.206Z,51243.47
2022-12-13T07:44:27.291Z,51249.41
2022-12-13T07:46:54.380Z,51273.28
2022-12-13T07:49:21.491Z,51257.38
2022-12-13T07:51:49.144Z,51253.41
2022-12-13T07:54:16.380Z,51257.38
2022-12-13T07:56:43.633Z,51245.44
2022-12-13T07:59:11.308Z,51229.53
2022-12-13T08:01:38.671Z,51259.34
2022-12-13T08:04:06.279Z,51241.47
2022-12-13T08:06:38.370Z,51253.41
2022-12-13T08:09:06.238Z,51251.41
2022-12-13T08:11:33.454Z,51267.31
2022-12-13T08:14:00.717Z,51241.47
2022-12-13T08:16:30.216Z,51239.47
2022-12-13T08:19:01.675Z,51251.41
2022-12-13T08:21:58.857Z,51257.38
2022-12-13T08:24:30.603Z,51225.56
2022-12-13T08:27:05.758Z,51245.44
2022-12-13T08:29:35.969Z,51241.47
2022-12-13T08:32:10.355Z,51243.47
2022-12-13T08:34:38.262Z,51229.53
2022-12-13T08:37:06.343Z,51259.34
2022-12-13T08:39:37.428Z,51245.44
2022-12-13T08:42:16.812Z,51259.34
2022-12-13T08:44:50.844Z,51257.38
2022-12-13T08:47:25.998Z,51233.50
2022-12-13T08:50:04.195Z,51211.66
2022-12-13T08:52:39.477Z,51249.41
2022-12-13T08:55:13.779Z,51225.56
2022-12-13T08:57:43.035Z,51269.31
2022-12-13T09:00:19.396Z,51277.25
2022-12-13T09:02:47.740Z,51281.22
2022-12-13T09:05:33.891Z,51237.50
2022-12-13T09:08:22.980Z,51241.47
2022-12-13T09:11:01.090Z,51237.50
2022-12-13T09:13:43.428Z,51249.41
2022-12-13T09:16:24.422Z,51231.53
2022-12-13T09:18:55.404Z,51245.44
2022-12-13T09:21:31.724Z,51253.41
2022-12-13T09:24:01.896Z,51261.34
2022-12-13T09:26:29.841Z,51269.31
2022-12-13T09:29:10.555Z,51241.47
2022-12-13T09:31:40.614Z,51227.56
2022-12-13T09:34:10.238Z,51247.44
2022-12-13T09:36:37.916Z,51261.34
2022-12-13T09:39:07.627Z,51237.50
2022-12-13T09:41:40.702Z,51229.53
2022-12-13T09:44:32.708Z,51243.47
2022-12-13T09:47:27.544Z,51241.47
2022-12-13T09:50:15.053Z,51273.28
2022-12-13T09:52:44.916Z,51253.41
2022-12-13T09:55:25.315Z,51251.41
2022-12-13T09:57:53.164Z,51215.63
2022-12-13T10:00:25.669Z,51225.56
2022-12-13T10:02:58.513Z,51233.50
2022-12-13T10:05:34.554Z,51251.41
2022-12-13T10:08:15.040Z,51233.50
2022-12-13T10:10:46.328Z,51261.34
2022-12-13T10:13:21.175Z,51235.50
2022-12-13T10:15:59.532Z,51233.50
2022-12-13T10:18:38.902Z,51249.41
2022-12-13T10:21:13.996Z,51265.31
2022-12-13T10:24:15.695Z,51257.38
2022-12-13T10:26:37.587Z,51229.53
2022-12-13T10:29:06.979Z,51267.31
2022-12-13T10:31:50.353Z,51231.53
2022-12-13T10:34:30.829Z,51249.41
2022-12-13T10:36:59.543Z,51229.53
2022-12-13T10:39:40.655Z,51253.41
2022-12-13T10:42:25.026Z,51225.56
2022-12-13T10:45:23.636Z,51247.44
2022-12-13T10:47:51.519Z,51217.59
2022-12-13T10:50:28.858Z,51253.41
2022-12-13T10:52:58.109Z,51235.50
2022-12-13T10:55:38.022Z,51251.41
2022-12-13T10:58:09.409Z,51253.41
2022-12-13T11:00:47.344Z,51229.53
2022-12-13T11:03:30.263Z,51235.50
2022-12-13T11:06:18.093Z,51249.41
2022-12-13T11:08:45.207Z,51241.47
2022-12-13T11:11:13.137Z,51255.38
2022-12-13T11:14:06.812Z,51257.38
2022-12-13T11:16:41.714Z,51259.34
2022-12-13T11:19:55.215Z,51281.22
2022-12-13T11:22:31.098Z,51299.13
2022-12-13T11:25:24.538Z,51297.13
2022-12-13T11:28:27.432Z,51305.09
2022-12-13T11:31:15.447Z,51334.91
2022-12-13T11:33:48.051Z,51340.88
2022-12-13T11:36:40.169Z,51356.78
2022-12-13T11:39:38.270Z,51366.72
2022-12-13T11:42:29.825Z,51364.72
2022-12-13T11:45:23.164Z,51388.59
2022-12-13T11:48:13.730Z,51392.56
2022-12-13T11:50:45.299Z,51388.59
2022-12-13T11:53:50.319Z,51422.38
2022-12-13T11:56:27.534Z,51436.28
2022-12-13T11:59:11.316Z,51420.41
2022-12-13T12:01:51.930Z,51458.16
2022-12-13T12:04:51.558Z,51450.22
2022-12-13T12:08:12.867Z,51472.09
2022-12-13T12:10:38.123Z,51458.16
2022-12-13T12:13:15.909Z,51482.03
2022-12-13T12:16:16.418Z,51470.09
2022-12-13T12:18:44.223Z,51486.00
2022-12-13T12:21:42.705Z,51488.00
2022-12-13T12:24:30.409Z,51499.91
2022-12-13T12:27:40.937Z,51493.94
2022-12-13T12:30:24.305Z,51499.91
2022-12-13T12:32:57.021Z,51491.97
2022-12-13T12:36:05.282Z,51486.00
2022-12-13T12:38:50.631Z,51495.94
2022-12-13T12:41:48.109Z,51458.16
2022-12-13T12:44:21.079Z,51480.03
2022-12-13T12:47:28.572Z,51464.13
2022-12-13T12:50:24.891Z,51501.91
2022-12-13T12:53:21.282Z,51503.91
2022-12-13T12:56:24.444Z,51527.75
2022-12-13T12:59:12.603Z,51495.94
2022-12-13T13:02:07.553Z,51484.00
2022-12-13T13:04:42.447Z,51495.94
2022-12-13T13:07:29.030Z,51491.97
2022-12-13T13:09:58.029Z,51501.91
2022-12-13T13:12:44.557Z,51489.97
2022-12-13T13:15:33.796Z,51499.91
2022-12-13T13:18:01.455Z,51470.09
2022-12-13T13:20:29.701Z,51472.09
2022-12-13T13:23:38.534Z,51569.50
2022-12-13T13:28:42.660Z,51454.19
2022-12-13T13:31:10.437Z,51444.25
2022-12-13T13:33:57.902Z,51460.16
2022-12-13T13:36:52.792Z,51466.13
2022-12-13T13:39:54.152Z,51462.16
2022-12-13T13:42:32.128Z,51424.38
2022-12-13T13:45:26.953Z,51386.59
2022-12-13T13:48:20.297Z,51346.84
2022-12-13T13:50:56.185Z,51326.94
2022-12-13T13:53:52.695Z,51307.06
2022-12-13T13:56:35.540Z,51309.06
2022-12-13T13:59:25.394Z,51303.09
2022-12-13T14:02:27.047Z,51281.22
2022-12-13T14:05:32.087Z,51307.06
2022-12-13T14:08:39.479Z,51281.22
2022-12-13T14:11:54.582Z,51293.16
2022-12-13T14:15:02.609Z,51257.38
2022-12-13T14:18:04.110Z,51265.31
2022-12-13T14:20:53.243Z,51269.31
2022-12-13T14:23:35.902Z,51273.28
2022-12-13T14:26:43.503Z,51265.31
2022-12-13T14:29:32.174Z,51275.25
2022-12-13T14:31:59.545Z,51255.38
2022-12-13T14:34:30.238Z,51255.38
2022-12-13T14:37:17.034Z,51265.31
2022-12-13T14:39:45.971Z,51265.31
2022-12-13T14:42:29.865Z,51277.25
2022-12-13T14:45:35.439Z,51273.28
2022-12-13T14:48:11.037Z,51253.41
2022-12-13T14:50:40.352Z,51271.28
2022-12-13T14:53:20.479Z,51243.47
2022-12-13T14:56:11.316Z,51265.31
2022-12-13T14:59:11.435Z,51295.16
2022-12-13T15:01:39.159Z,51255.38
2022-12-13T15:04:22.182Z,51225.56
2022-12-13T15:07:15.353Z,51261.34
2022-12-13T15:09:45.712Z,51265.31
2022-12-13T15:12:25.087Z,51233.50
2022-12-13T15:15:27.114Z,51227.56
2022-12-13T15:18:21.523Z,51213.63
2022-12-13T15:20:57.319Z,51247.44
2022-12-13T15:23:38.994Z,51255.38
2022-12-13T15:26:28.313Z,51249.41
2022-12-13T15:29:20.184Z,51235.50
2022-12-13T15:31:49.148Z,51237.50
2022-12-13T15:34:30.987Z,51253.41
2022-12-13T15:37:02.620Z,51259.34
2022-12-13T15:39:33.525Z,51213.63
2022-12-13T15:42:00.754Z,51237.50
2022-12-13T15:44:36.649Z,51259.34
2022-12-13T15:47:28.487Z,51263.34
2022-12-13T15:50:04.393Z,51227.56
2022-12-13T15:52:38.453Z,51229.53
2022-12-13T15:55:05.486Z,51247.44
2022-12-13T15:57:35.283Z,51255.38
2022-12-13T16:00:30.291Z,51255.38
2022-12-13T16:03:17.322Z,51207.66
2022-12-13T16:05:53.121Z,51209.66
2022-12-13T16:08:40.726Z,51225.56
2022-12-13T16:11:08.927Z,51233.50
2022-12-13T16:13:38.323Z,51213.63
2022-12-13T16:16:28.249Z,51229.53
2022-12-13T16:19:00.661Z,51233.50
2022-12-13T16:21:30.250Z,51205.69
2022-12-13T16:23:57.625Z,51239.47
2022-12-13T16:26:29.971Z,51225.56
2022-12-13T16:29:00.529Z,51233.50
2022-12-13T16:31:35.597Z,51249.41
2022-12-13T16:34:04.820Z,51215.63
2022-12-13T16:36:32.525Z,51215.63
2022-12-13T16:38:59.888Z,51241.47
2022-12-13T16:41:27.384Z,51223.56
2022-12-13T16:44:02.139Z,51267.31
2022-12-13T16:47:12.704Z,51223.56
2022-12-13T16:49:22.590Z,51243.47
2022-12-13T16:51:50.193Z,51213.63
2022-12-13T16:54:22.459Z,51257.38
2022-12-13T16:56:50.523Z,51225.56
2022-12-13T16:59:22.458Z,51227.56
2022-12-13T17:01:51.159Z,51229.53
2022-12-13T17:04:22.874Z,51217.59
2022-12-13T17:06:51.032Z,51217.59
2022-12-13T17:09:23.391Z,51221.59
2022-12-13T17:11:50.460Z,51201.72
2022-12-13T17:14:17.551Z,51233.50
2022-12-13T17:16:44.745Z,51243.47
2022-12-13T17:19:14.673Z,51221.59
2022-12-13T17:21:41.801Z,51233.50
2022-12-13T17:24:09.021Z,51213.63
2022-12-13T17:26:36.204Z,51233.50
2022-12-13T17:29:03.381Z,51211.66
2022-12-13T17:31:35.372Z,51245.44
2022-12-13T17:34:04.351Z,51225.56
2022-12-13T17:36:31.796Z,51219.59
2022-12-13T17:38:59.604Z,51223.56
2022-12-13T17:41:26.711Z,51201.72
2022-12-13T17:44:02.896Z,51193.75
2022-12-13T17:46:37.657Z,51239.47
2022-12-13T17:49:05.592Z,51225.56
2022-12-13T17:51:33.343Z,51233.50
2022-12-13T17:54:00.439Z,51221.59
2022-12-13T17:56:27.675Z,51225.56
2022-12-13T17:58:54.841Z,51191.78
2022-12-13T18:01:25.196Z,51207.66
2022-12-13T18:03:55.641Z,51201.72
2022-12-13T18:06:26.831Z,51223.56
2022-12-13T18:08:54.665Z,51205.69
2022-12-13T18:11:37.626Z,51237.50
2022-12-13T18:14:07.259Z,51219.59
2022-12-13T18:16:38.422Z,51203.69
2022-12-13T18:19:09.195Z,51179.84
2022-12-13T18:21:37.567Z,51203.69
2022-12-13T18:24:08.106Z,51197.72
2022-12-13T18:26:35.435Z,51217.59
2022-12-13T18:29:03.915Z,51205.69
2022-12-13T18:31:31.321Z,51223.56
2022-12-13T18:33:59.789Z,51187.78
2022-12-13T18:36:27.312Z,51233.50
2022-12-13T18:38:54.772Z,51175.88
2022-12-13T18:41:28.534Z,51195.75
2022-12-13T18:44:00.009Z,51201.72
2022-12-13T18:46:30.253Z,51193.75
2022-12-13T18:48:58.598Z,51187.78
2022-12-13T18:51:30.654Z,51195.75
2022-12-13T18:54:00.471Z,51193.75
2022-12-13T18:56:28.598Z,51193.75
2022-12-13T18:58:59.226Z,51215.63
2022-12-13T19:01:28.533Z,51193.75
2022-12-13T19:03:56.255Z,51213.63
2022-12-13T19:06:27.594Z,51169.91
2022-12-13T19:08:57.608Z,51209.66
2022-12-13T19:11:27.011Z,51165.91
2022-12-13T19:13:55.045Z,51163.94
2022-12-13T19:16:24.803Z,51207.66
2022-12-13T19:18:51.962Z,51199.72
2022-12-13T19:21:21.924Z,51207.66
2022-12-13T19:23:56.483Z,51193.75
2022-12-13T19:26:27.335Z,51197.72
2022-12-13T19:28:57.065Z,51221.59
2022-12-13T19:31:30.512Z,51199.72
2022-12-13T19:34:00.886Z,51191.78
2022-12-13T19:36:28.630Z,51211.66
2022-12-13T19:38:56.237Z,51195.75
2022-12-13T19:41:23.489Z,51191.78
2022-12-13T19:43:52.948Z,51189.78
2022-12-13T19:46:21.399Z,51205.69
2022-12-13T19:48:48.793Z,51207.66
2022-12-13T19:51:16.378Z,51173.88
2022-12-13T19:53:43.487Z,51197.72
2022-12-13T19:56:17.746Z,51201.72
2022-12-13T19:58:47.210Z,51187.78
2022-12-13T20:01:14.977Z,51201.72
2022-12-13T20:03:45.627Z,51187.78
2022-12-13T20:06:17.206Z,51195.75
2022-12-13T20:08:45.167Z,51179.84
2022-12-13T20:11:22.359Z,51167.91
2022-12-13T20:13:53.741Z,51193.75
2022-12-13T20:16:24.978Z,51185.81
2022-12-13T20:19:00.499Z,51165.91
2022-12-13T20:21:29.267Z,51175.88
2022-12-13T20:23:57.824Z,51201.72
2022-12-13T20:26:28.209Z,51177.84
2022-12-13T20:28:56.249Z,51157.97
2022-12-13T20:31:37.093Z,51201.72
2022-12-13T20:34:10.084Z,51201.72
2022-12-13T20:36:37.650Z,51185.81
2022-12-13T20:39:06.732Z,51183.81
2022-12-13T20:41:35.946Z,51173.88
2022-12-13T20:44:05.931Z,51161.94
2022-12-13T20:46:33.468Z,51199.72
2022-12-13T20:49:04.384Z,51159.97
2022-12-13T20:51:32.769Z,51155.97
2022-12-13T20:54:00.846Z,51161.94
2022-12-13T20:56:35.274Z,51154.00
2022-12-13T20:59:04.387Z,51142.06
2022-12-13T21:01:35.272Z,51207.66
2022-12-13T21:04:05.423Z,51195.75
2022-12-13T21:06:38.638Z,51197.72
2022-12-13T21:09:06.737Z,51169.91
2022-12-13T21:11:36.159Z,51161.94
2022-12-13T21:14:28.541Z,51161.94
2022-12-13T21:17:01.831Z,51171.88
2022-12-13T21:19:39.065Z,51157.97
2022-12-13T21:22:06.843Z,51159.97
2022-12-13T21:24:34.100Z,51185.81
2022-12-13T21:27:01.269Z,51199.72
2022-12-13T21:29:28.399Z,51165.91
2022-12-13T21:31:56.188Z,51195.75
2022-12-13T21:34:23.784Z,51163.94
2022-12-13T21:36:52.624Z,51148.03
2022-12-13T21:39:30.984Z,51161.94
2022-12-13T21:41:58.353Z,51185.81
2022-12-13T21:44:25.498Z,51177.84
2022-12-13T21:47:11.969Z,51171.88
2022-12-13T21:49:39.810Z,51205.69
2022-12-13T21:52:06.905Z,51189.78
2022-12-13T21:54:33.997Z,51159.97
2022-12-13T21:57:20.102Z,51159.97
2022-12-13T21:59:47.193Z,51150.03
2022-12-13T22:02:18.499Z,51163.94
2022-12-13T22:04:55.336Z,51163.94
2022-12-13T22:07:24.912Z,51199.72
2022-12-13T22:09:53.358Z,51203.69
2022-12-13T22:12:29.741Z,51197.72
2022-12-13T22:14:56.789Z,51159.97
2022-12-13T22:17:33.006Z,51197.72
2022-12-13T22:20:02.745Z,51148.03
2022-12-13T22:22:31.249Z,51159.97
2022-12-13T22:24:58.486Z,51159.97
2022-12-13T22:27:26.155Z,51169.91
2022-12-13T22:29:57.722Z,51148.03
2022-12-13T22:32:27.490Z,51187.78
2022-12-13T22:34:55.071Z,51167.91
2022-12-13T22:37:23.230Z,51152.00
2022-12-13T22:39:50.907Z,51165.91
2022-12-13T22:42:19.481Z,51159.97
2022-12-13T22:44:46.581Z,51157.97
2022-12-13T22:47:13.740Z,51189.78
2022-12-13T22:49:40.871Z,51146.03
2022-12-13T22:52:08.353Z,51122.19
2022-12-13T22:54:35.945Z,51142.06
2022-12-13T22:57:03.574Z,51150.03
2022-12-13T22:59:31.041Z,51138.09
2022-12-13T23:02:02.059Z,51191.78
2022-12-13T23:04:32.753Z,51128.16
2022-12-13T23:07:00.066Z,51159.97
2022-12-13T23:09:27.187Z,51134.13
2022-12-13T23:12:12.661Z,51173.88
2022-12-13T23:14:39.822Z,51185.81
2022-12-13T23:17:07.314Z,51169.91
2022-12-13T23:19:51.451Z,51193.75
2022-12-13T23:22:25.476Z,51155.97
2022-12-13T23:24:53.522Z,51177.84
2022-12-13T23:27:23.285Z,51157.97
2022-12-13T23:29:50.466Z,51144.06
2022-12-13T23:32:17.905Z,51161.94
2022-12-13T23:34:45.122Z,51169.91
2022-12-13T23:37:12.236Z,51157.97
2022-12-13T23:39:39.379Z,51140.09
2022-12-13T23:42:06.456Z,51140.09
2022-12-13T23:44:33.713Z,51177.84
2022-12-13T23:47:00.849Z,51130.13
2022-12-13T23:49:28.217Z,51150.03
2022-12-13T23:51:55.327Z,51157.97
2022-12-13T23:54:22.483Z,51167.91
2022-12-13T23:56:49.554Z,51177.84
2022-12-13T23:59:16.683Z,51173.88
